• Join FlightAware (Why Join?)
  • Login
  • US Flag 
01:40AM EDT


 

Airport Tracker/Info


-or-


 

Live Flight TrackerFlight Track Log ✈ AAL1459 ✈ 15-Apr-2013 ✈ KBOS - KORD

Flight Track Log - Related Links

Times and Time Zones

All times are in EDT time to prevent confusion due to time zone crossing. See the AAL1459 flight status page for this flight to view local times or setup timezone preferences in your user account.

Time Position Orientation Groundspeed Altitude Reporting Facility
EDT Latitude Longitude Course Direction KTS MPH feet Rate Location/Type
02:07PM 42.3710 -70.9380 72° East 208 239 1,300  Level FlightAware
02:08PM 42.3750 -70.9160 76° East 232 267 1,700 2,220 Climbing FlightAware
02:08PM 42.3810 -70.8800 77° East 254 292 2,800 3,060 Climbing FlightAware
02:08PM 42.3850 -70.8480 80° East 260 299 4,000 3,240 Climbing FlightAware
02:09PM 42.3900 -70.8220 75° East 277 319 4,700 3,600 Climbing FlightAware
02:09PM 42.4010 -70.8010 55° Northeast 261 300 5,800 3,780 Climbing FlightAware
02:09PM 42.4140 -70.7890 34° Northeast 255 293 6,600 3,180 Climbing FlightAware
02:09PM 42.4300 -70.7780 27° Northeast 258 297 7,400 3,720 Climbing FlightAware
02:10PM 42.4600 -70.7710 10° North 245 282 9,100 3,720 Climbing FlightAware
02:10PM 42.4760 -70.7770 345° North 239 275 9,900 1,920 Climbing FlightAware
02:11PM 42.5190 -70.8100 331° Northwest 293 337 10,900 1,860 Climbing FlightAware
02:11PM 42.5590 -70.8800 308° West 326 375 12,600 2,520 Climbing FlightAware
02:12PM 42.5970 -70.9480 307° West 340 391 14,500 2,760 Climbing FlightAware
02:13PM 42.6350 -71.0150 308° West 351 404 16,300 2,580 Climbing FlightAware
02:13PM 42.6810 -71.0960 308° West 359 413 18,200 2,520 Climbing FlightAware
02:14PM 42.7210 -71.1690 307° West 370 426 19,900 2,400 Climbing FlightAware
02:15PM 42.7530 -71.2660 294° West 379 436 21,600 2,220 Climbing FlightAware
02:15PM 42.7610 -71.3390 279° West 388 447 22,700 2,040 Climbing FlightAware
02:16PM 42.7710 -71.4380 278° West 395 455 24,000 1,800 Climbing FlightAware
02:17PM 42.7810 -71.5390 278° West 408 470 25,100 1,620 Climbing FlightAware
02:17PM 42.7920 -71.6430 278° West 416 479 26,200 1,620 Climbing FlightAware
02:18PM 42.8050 -71.7740 278° West 423 487 27,600 2,040 Climbing FlightAware
02:19PM 42.8170 -71.8950 278° West 412 474 29,500 2,280 Climbing FlightAware
02:20PM 42.8270 -71.9950 278° West 403 464 30,900 1,860 Climbing FlightAware
02:20PM 42.8370 -72.0950 278° West 400 460 32,000 720 Climbing FlightAware
02:21PM 42.8470 -72.2030 277° West 399 459 32,000  Level FlightAware
02:22PM 42.8570 -72.3030 278° West 398 458 32,000  Level FlightAware
02:22PM 42.8680 -72.4180 277° West 397 457 32,000  Level FlightAware
02:23PM 42.8770 -72.5140 277° West 398 458 32,000  Level FlightAware
02:24PM 42.8870 -72.6290 277° West 398 458 32,000  Level FlightAware
02:25PM 42.8960 -72.7280 277° West 398 458 32,000  Level FlightAware
02:25PM 42.9050 -72.8260 277° West 398 458 32,000  Level FlightAware
02:26PM 42.9150 -72.9330 277° West 398 458 32,000  Level FlightAware
02:26PM 42.9190 -72.9760 277° West 398 458 32,000  Level FlightAware
02:27PM 42.9290 -73.0900 277° West 396 456 32,000  Level FlightAware
02:28PM 42.9370 -73.1850 277° West 397 457 32,000  Level FlightAware
02:29PM 42.9470 -73.2930 277° West 398 458 32,000  Level FlightAware
02:29PM 42.9580 -73.4230 277° West 399 459 32,000  Level FlightAware
02:30PM 42.9640 -73.4990 276° West 399 459 32,000  Level FlightAware
02:30PM 42.9730 -73.5990 277° West 399 459 32,000  Level FlightAware
02:31PM 42.9810 -73.7010 276° West 399 459 32,000  Level FlightAware
02:32PM 42.9900 -73.8080 277° West 400 460 32,000  Level FlightAware
02:32PM 42.9980 -73.9110 276° West 401 461 32,000  Level FlightAware
02:33PM 43.0080 -74.0260 277° West 400 460 32,000  Level FlightAware
02:34PM 43.0160 -74.1310 276° West 401 461 32,000  Level FlightAware
02:35PM 43.0230 -74.2190 276° West 400 460 32,000  Level FlightAware
02:36PM 43.0340 -74.3590 276° West 400 460 32,000  Level FlightAware
02:36PM 43.0420 -74.4650 276° West 400 460 32,000  Level FlightAware
02:37PM 43.0520 -74.6120 275° West 399 459 32,000  Level FlightAware
02:38PM 43.0550 -74.6550 275° West 399 459 32,000  Level FlightAware
02:39PM 43.0670 -74.8150 276° West 397 457 32,000  Level FlightAware
02:40PM 43.0800 -74.9880 276° West 391 450 32,000  Level FlightAware
02:40PM 43.0880 -75.0900 276° West 390 449 32,000  Level FlightAware
02:41PM 43.0950 -75.1920 275° West 389 448 32,000  Level FlightAware
02:42PM 43.1020 -75.3030 275° West 388 447 32,000  Level FlightAware
02:43PM 43.1090 -75.4000 276° West 388 447 32,000  Level FlightAware
02:43PM 43.1160 -75.4980 276° West 389 448 32,000 840 Level FlightAware
02:44PM 43.1230 -75.6090 275° West 386 444 33,200 1,380 Climbing FlightAware
02:45PM 43.1290 -75.7060 275° West 379 436 34,000 1,080 Climbing FlightAware
02:45PM 43.1360 -75.8110 275° West 368 423 34,800 1,380 Climbing FlightAware
02:46PM 43.1420 -75.9010 275° West 354 407 36,000 900 Climbing FlightAware
02:47PM 43.1470 -75.9890 274° West 356 410 36,000  Level FlightAware
02:47PM 43.1540 -76.0900 275° West 356 410 36,000  Level FlightAware
02:48PM 43.1590 -76.1820 274° West 356 410 36,000  Level FlightAware
02:49PM 43.1600 -76.2830 271° West 358 412 36,000  Level FlightAware
02:50PM 43.1610 -76.3730 271° West 358 412 36,000  Level FlightAware
02:50PM 43.1600 -76.4630 269° West 360 414 36,000  Level FlightAware
02:51PM 43.1600 -76.5460 270° West 361 415 36,000  Level FlightAware
02:52PM 43.1600 -76.6480 270° West 362 417 36,000  Level FlightAware
02:52PM 43.1600 -76.7400 270° West 363 418 36,000  Level FlightAware
02:53PM 43.1590 -76.8410 269° West 364 419 36,000  Level FlightAware
02:54PM 43.1590 -76.9320 270° West 365 420 36,000  Level FlightAware
02:54PM 43.1580 -77.0270 269° West 365 420 36,000  Level FlightAware
02:55PM 43.1580 -77.1320 270° West 365 420 36,000  Level FlightAware
02:56PM 43.1570 -77.2240 269° West 366 421 36,000  Level FlightAware
02:56PM 43.1560 -77.3280 269° West 367 422 36,000  Level FlightAware
02:57PM 43.1550 -77.4140 269° West 367 422 36,000  Level FlightAware
02:58PM 43.1540 -77.5140 269° West 367 422 36,000  Level FlightAware
02:58PM 43.1530 -77.6060 269° West 366 421 36,000  Level FlightAware
02:59PM 43.1520 -77.7100 269° West 366 421 36,000  Level FlightAware
03:00PM 43.1510 -77.8020 269° West 366 421 36,000  Level FlightAware
03:01PM 43.1490 -77.9070 269° West 367 422 36,000  Level FlightAware
03:01PM 43.1480 -77.9990 269° West 368 423 36,000  Level FlightAware
03:02PM 43.1460 -78.1020 269° West 369 425 36,000  Level FlightAware
03:03PM 43.1450 -78.1980 269° West 371 427 36,000  Level FlightAware
03:03PM 43.1430 -78.2920 268° West 372 428 36,000  Level FlightAware
03:04PM 43.1410 -78.3950 269° West 372 428 36,000  Level FlightAware
03:05PM 43.1390 -78.4920 268° West 371 427 36,000  Level FlightAware
03:05PM 43.1360 -78.5840 267° West 370 426 36,000  Level FlightAware
03:06PM 43.1330 -78.6870 268° West 370 426 36,000  Level FlightAware
03:07PM 43.1310 -78.7820 268° West 369 425 36,000  Level FlightAware
03:08PM 43.1280 -78.8740 267° West 367 422 36,000  Level FlightAware
03:08PM 43.1250 -78.9800 268° West 364 419 36,000  Level FlightAware
03:09PM 43.1210 -79.0830 267° West 362 417 36,000  Level FlightAware
03:10PM 43.1190 -79.1730 268° West 361 415 36,000  Level FlightAware
03:10PM 43.1160 -79.2640 267° West 358 412 36,000  Level FlightAware
03:11PM 43.1120 -79.3640 267° West 356 410 36,000  Level FlightAware
03:12PM 43.1090 -79.4550 267° West 354 407 36,000  Level FlightAware
03:13PM 43.1060 -79.5530 268° West 352 405 36,000  Level FlightAware
03:13PM 43.1030 -79.6430 267° West 351 404 36,000  Level FlightAware
03:14PM 43.0990 -79.7440 267° West 352 405 36,000  Level FlightAware
03:15PM 43.0960 -79.8310 267° West 353 406 36,000  Level FlightAware
03:15PM 43.0920 -79.9200 267° West 354 407 36,000  Level FlightAware
03:16PM 43.0880 -80.0230 267° West 356 410 36,000  Level FlightAware
03:17PM 43.0850 -80.1120 267° West 356 410 36,000  Level FlightAware
03:17PM 43.0810 -80.2100 267° West 357 411 36,000  Level FlightAware
03:18PM 43.0770 -80.2920 266° West 357 411 36,000  Level FlightAware
03:19PM 43.0730 -80.4020 267° West 358 412 36,000  Level FlightAware
03:20PM 43.0690 -80.4950 267° West 358 412 36,000  Level FlightAware
03:20PM 43.0640 -80.5850 266° West 357 411 36,000  Level FlightAware
03:21PM 43.0600 -80.6830 267° West 357 411 36,000  Level FlightAware
03:22PM 43.0560 -80.7760 267° West 355 409 36,000  Level FlightAware
03:22PM 43.0650 -80.8270 284° West 355 409 36,000  Level FlightAware
03:23PM 43.1160 -80.8960 315° West 369 425 36,000  Level FlightAware
03:23PM 43.1770 -80.9730 317° Northwest 368 423 36,000  Level FlightAware
03:24PM 43.2330 -81.0420 318° Northwest 367 422 36,000  Level FlightAware
03:25PM 43.2820 -81.1030 318° Northwest 366 421 36,000  Level FlightAware
03:26PM 43.3400 -81.1740 318° Northwest 364 419 36,000  Level FlightAware
03:26PM 43.3890 -81.2370 317° Northwest 354 407 36,000  Level FlightAware
03:27PM 43.3970 -81.2690 289° West 341 392 36,000  Level FlightAware
03:27PM 43.3910 -81.3400 263° West 343 395 36,000  Level FlightAware
03:28PM 43.3750 -81.4360 257° West 343 395 36,000  Level FlightAware
03:29PM 43.3620 -81.5180 258° West 342 394 36,000  Level FlightAware
03:29PM 43.3460 -81.6150 257° West 342 394 36,000  Level FlightAware
03:30PM 43.3310 -81.7030 257° West 342 394 36,000  Level FlightAware
03:31PM 43.3170 -81.7870 257° West 343 395 36,000  Level FlightAware
03:31PM 43.2990 -81.8910 257° West 344 396 36,000  Level FlightAware
03:32PM 43.2860 -81.9720 258° West 344 396 36,000  Level FlightAware
03:33PM 43.2660 -82.0880 257° West 344 396 36,000  Level FlightAware
03:34PM 43.2500 -82.1760 256° West 344 396 36,000  Level FlightAware
03:34PM 43.2390 -82.2430 257° West 343 395 36,000  Level FlightAware
03:35PM 43.2200 -82.3530 257° West 342 394 36,000  Level FlightAware
03:36PM 43.2080 -82.4230 257° West 342 394 36,000  Level FlightAware
03:37PM 43.1900 -82.5200 256° West 342 394 36,000  Level FlightAware
03:37PM 43.1750 -82.6090 257° West 342 394 36,000 -780 Level FlightAware
03:38PM 43.1580 -82.7050 256° West 342 394 34,900 -2,100 Descending FlightAware
03:39PM 43.1440 -82.7850 257° West 348 400 33,100 -2,220 Descending FlightAware
03:39PM 43.1290 -82.8680 256° West 352 405 32,000 -840 Descending FlightAware
03:40PM 43.1120 -82.9580 256° West 353 406 32,000  Level FlightAware
03:41PM 43.0920 -83.0670 256° West 352 405 32,000  Level FlightAware
03:41PM 43.0780 -83.1480 257° West 352 405 32,000  Level FlightAware
03:42PM 43.0610 -83.2380 256° West 352 405 32,000  Level FlightAware
03:43PM 43.0430 -83.3380 256° West 352 405 32,000  Level FlightAware
03:43PM 43.0290 -83.4120 256° West 352 405 32,000  Level FlightAware
03:44PM 43.0090 -83.5220 256° West 353 406 32,000  Level FlightAware
03:45PM 42.9910 -83.6180 256° West 354 407 32,000  Level FlightAware
03:46PM 42.9720 -83.7170 255° West 353 406 32,000  Level FlightAware
03:46PM 42.9620 -83.7940 260° West 353 406 32,000  Level FlightAware
03:47PM 42.9530 -83.8940 263° West 355 409 32,000  Level FlightAware
03:48PM 42.9430 -83.9940 262° West 357 411 32,000  Level FlightAware
03:48PM 42.9350 -84.0720 262° West 357 411 32,000  Level FlightAware
03:49PM 42.9260 -84.1670 263° West 358 412 32,000  Level FlightAware
03:50PM 42.9150 -84.2760 262° West 362 417 32,000  Level FlightAware
03:51PM 42.9060 -84.3650 262° West 363 418 32,000  Level FlightAware
03:51PM 42.8960 -84.4660 262° West 362 417 32,000  Level FlightAware
03:52PM 42.8880 -84.5440 262° West 359 413 32,000  Level FlightAware
03:53PM 42.8780 -84.6440 262° West 355 409 32,000  Level FlightAware
03:53PM 42.8680 -84.7450 262° West 356 410 32,000  Level FlightAware
03:54PM 42.8580 -84.8350 261° West 356 410 32,000  Level FlightAware
03:55PM 42.8480 -84.9360 262° West 355 409 32,000  Level FlightAware
03:55PM 42.8390 -85.0200 262° West 354 407 32,000  Level FlightAware
03:56PM 42.8290 -85.1090 261° West 353 406 32,000  Level FlightAware
03:57PM 42.8180 -85.2090 262° West 350 403 32,000 -1,140 Level FlightAware
03:58PM 42.8090 -85.2960 262° West 351 404 30,400 -3,000 Descending FlightAware
03:58PM 42.7990 -85.3840 261° West 365 420 28,000 -3,600 Descending FlightAware
03:59PM 42.7880 -85.4860 262° West 377 434 25,300 -2,520 Descending FlightAware
04:00PM 42.7720 -85.5780 257° West 349 402 24,500 -1,140 Descending FlightAware
04:00PM 42.7550 -85.6710 256° West 337 388 23,700 -1,080 Descending FlightAware
04:01PM 42.7410 -85.7520 257° West 332 382 23,000 -1,020 Descending FlightAware
04:02PM 42.7250 -85.8390 256° West 329 379 22,300 -1,020 Descending FlightAware
04:02PM 42.7100 -85.9210 256° West 334 384 21,600 -1,080 Descending FlightAware
04:03PM 42.6950 -86.0040 256° West 331 381 20,900 -1,020 Descending FlightAware
04:04PM 42.6780 -86.0950 256° West 328 377 20,200 -660 Descending FlightAware
04:05PM 42.6630 -86.1760 256° West 327 376 20,000 -180 Descending FlightAware
04:05PM 42.6490 -86.2550 256° West 325 374 20,000 -600 Level FlightAware
04:06PM 42.6320 -86.3440 255° West 322 371 19,200 -1,320 Descending FlightAware
04:07PM 42.6180 -86.4210 256° West 323 372 18,200 -1,440 Descending FlightAware
04:07PM 42.6010 -86.5100 255° West 327 376 17,200 -1,380 Descending FlightAware
04:08PM 42.5860 -86.5900 256° West 325 374 16,300 -1,200 Descending FlightAware
04:09PM 42.5750 -86.6480 256° West 320 368 15,700 -1,380 Descending FlightAware
04:09PM 42.5560 -86.7410 255° West 302 348 14,500 -1,440 Descending FlightAware
04:10PM 42.5350 -86.8180 250° West 281 323 13,600 -1,140 Descending FlightAware
04:11PM 42.5170 -86.8850 250° West 265 305 12,800 -1,080 Descending FlightAware
04:12PM 42.5010 -86.9450 250° West 256 295 12,100 -1,140 Descending FlightAware
04:12PM 42.4830 -87.0110 250° West 251 289 11,300 -1,080 Descending FlightAware
04:13PM 42.4660 -87.0720 249° West 252 290 10,600 -900 Descending FlightAware
04:14PM 42.4510 -87.1280 250° West 259 298 10,100 -720 Descending FlightAware
04:14PM 42.4450 -87.1490 249° West 281 323 10,000 -840 Descending FlightAware
04:14PM 42.4270 -87.1770 229° Southwest 270 311 9,700 -840 Descending FlightAware
04:14PM 42.4160 -87.1810 195° South 268 308 9,600 -480 Descending FlightAware
04:15PM 42.4000 -87.1820 183° South 262 302 9,500 -600 Descending FlightAware
04:15PM 42.3480 -87.1790 178° South 260 299 9,100 -360 Descending FlightAware
04:16PM 42.3150 -87.1710 170° South 256 295 9,100  Level FlightAware
04:16PM 42.2800 -87.1630 170° South 259 298 9,100  Level FlightAware
04:17PM 42.2470 -87.1580 174° South 253 291 9,100 -720 Level FlightAware
04:17PM 42.2260 -87.1580 180° South 254 292 8,600 -1,680 Descending FlightAware
04:17PM 42.1970 -87.1660 192° South 246 283 8,000 -1,200 Descending FlightAware
04:18PM 42.1830 -87.1730 200° South 243 280 7,800 -1,080 Descending FlightAware
04:18PM 42.1570 -87.1930 210° Southwest 233 268 7,300 -1,080 Descending FlightAware
04:18PM 42.1500 -87.2020 224° Southwest 236 272 7,200 -300 Descending FlightAware
04:19PM 42.1240 -87.2370 225° Southwest 235 270 7,100 -120 Descending FlightAware
04:19PM 42.1030 -87.2660 226° Southwest 236 272 7,100  Level FlightAware
04:20PM 42.0800 -87.2980 226° Southwest 236 272 7,100  Level FlightAware
04:20PM 42.0580 -87.3280 225° Southwest 234 269 7,100  Level FlightAware
04:21PM 42.0390 -87.3530 224° Southwest 232 267 7,100  Level FlightAware
04:21PM 42.0170 -87.3840 226° Southwest 229 264 7,100  Level FlightAware
04:22PM 42.0000 -87.4120 231° Southwest 190 219 7,100  Level FlightAware
04:22PM 41.9880 -87.4410 241° Southwest 159 183 7,100 -120 Level FlightAware
04:23PM 41.9840 -87.4640 257° West 152 175 7,000 -600 Descending FlightAware
04:23PM 41.9820 -87.4940 265° West 160 184 6,600 -1,020 Descending FlightAware
04:23PM 41.9830 -87.5190 273° West 161 185 6,100 -900 Descending FlightAware
04:24PM 41.9830 -87.5480 270° West 157 181 5,800 -780 Descending FlightAware
04:25PM 41.9840 -87.5870 272° West 151 174 5,200 -840 Descending FlightAware
04:25PM 41.9840 -87.6090 270° West 151 174 4,900 -840 Descending FlightAware
04:25PM 41.9840 -87.6350 270° West 156 180 4,500 -900 Descending FlightAware
04:26PM 41.9840 -87.6780 270° West 162 186 3,900 -900 Descending FlightAware
04:26PM 41.9840 -87.6870 270° West 162 186 3,700 -1,080 Descending FlightAware
04:27PM 41.9840 -87.7310 270° West 167 192 3,000 -960 Descending FlightAware
04:27PM 41.9840 -87.7550 270° West 162 186 2,700 -900 Descending FlightAware
04:28PM 41.9840 -87.7850 270° West 149 171 2,200 -780 Descending FlightAware
04:28PM 41.9840 -87.8050 270° West 133 153 2,000 -600 Descending FlightAware
04:29PM 41.9840 -87.8270 270° West 132 152 1,700 -720 Descending FlightAware
04:29PM 41.9840 -87.8530 270° West 133 153 1,300 -660 Descending FlightAware
04:30PM 41.9840 -87.8690 270° West 128 147 1,100 -720 Descending FlightAware
04:30PM 41.9840 -87.8900 270° West 130 150 800 -840 Descending FlightAware
04:30PM 41.9840 -87.8930 270° West 130 150 700 -1,200 Descending FlightAware